sensor_id;sensor_type;location;lat;lon;timestamp;temperature;humidity
45983;DHT22;31711;47.158;7.346;2022-12-18T00:01:43;-0.60;99.90
45983;DHT22;31711;47.158;7.346;2022-12-18T00:04:18;-0.60;99.90
45983;DHT22;31711;47.158;7.346;2022-12-18T00:06:45;-0.60;99.90
45983;DHT22;31711;47.158;7.346;2022-12-18T00:09:11;-0.50;99.90
45983;DHT22;31711;47.158;7.346;2022-12-18T00:11:37;-0.40;99.90
45983;DHT22;31711;47.158;7.346;2022-12-18T00:14:03;-0.40;99.90
45983;DHT22;31711;47.158;7.346;2022-12-18T00:16:29;-0.50;99.90
45983;DHT22;31711;47.158;7.346;2022-12-18T00:18:59;-0.50;99.90
45983;DHT22;31711;47.158;7.346;2022-12-18T00:21:26;-0.50;99.90
45983;DHT22;31711;47.158;7.346;2022-12-18T00:23:53;-0.50;99.90
45983;DHT22;31711;47.158;7.346;2022-12-18T00:26:22;-0.50;99.90
45983;DHT22;31711;47.158;7.346;2022-12-18T00:28:48;-0.60;99.90
45983;DHT22;31711;47.158;7.346;2022-12-18T00:31:17;-0.50;99.90
45983;DHT22;31711;47.158;7.346;2022-12-18T00:33:44;-0.50;99.90
45983;DHT22;31711;47.158;7.346;2022-12-18T00:36:13;-0.50;99.90
45983;DHT22;31711;47.158;7.346;2022-12-18T00:38:40;-0.50;99.90
45983;DHT22;31711;47.158;7.346;2022-12-18T00:41:07;-0.50;99.90
45983;DHT22;31711;47.158;7.346;2022-12-18T00:43:34;-0.40;99.90
45983;DHT22;31711;47.158;7.346;2022-12-18T00:46:00;-0.50;99.90
45983;DHT22;31711;47.158;7.346;2022-12-18T00:48:26;-0.50;99.90
45983;DHT22;31711;47.158;7.346;2022-12-18T00:50:52;-0.50;99.90
45983;DHT22;31711;47.158;7.346;2022-12-18T00:53:18;-0.40;99.90
45983;DHT22;31711;47.158;7.346;2022-12-18T00:55:45;-0.50;99.90
45983;DHT22;31711;47.158;7.346;2022-12-18T00:58:12;-0.50;99.90
45983;DHT22;31711;47.158;7.346;2022-12-18T01:00:38;-0.70;99.90
45983;DHT22;31711;47.158;7.346;2022-12-18T01:03:05;-0.70;99.90
45983;DHT22;31711;47.158;7.346;2022-12-18T01:05:31;-0.60;99.90
45983;DHT22;31711;47.158;7.346;2022-12-18T01:07:57;-0.50;99.90
45983;DHT22;31711;47.158;7.346;2022-12-18T01:10:24;-0.40;99.90
45983;DHT22;31711;47.158;7.346;2022-12-18T01:12:50;-0.40;99.90
45983;DHT22;31711;47.158;7.346;2022-12-18T01:15:16;-0.40;99.90
45983;DHT22;31711;47.158;7.346;2022-12-18T01:17:43;-0.40;99.90
45983;DHT22;31711;47.158;7.346;2022-12-18T01:20:10;-0.30;99.90
45983;DHT22;31711;47.158;7.346;2022-12-18T01:22:36;-0.30;99.90
45983;DHT22;31711;47.158;7.346;2022-12-18T01:25:03;-0.30;99.90
45983;DHT22;31711;47.158;7.346;2022-12-18T01:27:30;-0.20;99.90
45983;DHT22;31711;47.158;7.346;2022-12-18T01:29:56;-0.20;99.90
45983;DHT22;31711;47.158;7.346;2022-12-18T01:32:22;-0.20;99.90
45983;DHT22;31711;47.158;7.346;2022-12-18T01:34:48;-0.10;99.90
45983;DHT22;31711;47.158;7.346;2022-12-18T01:37:14;-0.10;99.90
45983;DHT22;31711;47.158;7.346;2022-12-18T01:39:40;-0.20;99.90
45983;DHT22;31711;47.158;7.346;2022-12-18T01:42:12;-0.20;99.90
45983;DHT22;31711;47.158;7.346;2022-12-18T01:47:39;-0.30;99.90
45983;DHT22;31711;47.158;7.346;2022-12-18T01:53:10;-0.30;99.90
45983;DHT22;31711;47.158;7.346;2022-12-18T01:55:43;-0.20;99.90
45983;DHT22;31711;47.158;7.346;2022-12-18T01:58:11;-0.10;99.90
45983;DHT22;31711;47.158;7.346;2022-12-18T02:00:37;-0.10;99.90
45983;DHT22;31711;47.158;7.346;2022-12-18T02:03:03;-0.10;99.90
45983;DHT22;31711;47.158;7.346;2022-12-18T02:05:49;-0.10;99.90
45983;DHT22;31711;47.158;7.346;2022-12-18T02:11:20;-0.20;99.90
45983;DHT22;31711;47.158;7.346;2022-12-18T02:14:01;-0.20;99.90
45983;DHT22;31711;47.158;7.346;2022-12-18T02:16:55;-0.10;99.90
45983;DHT22;31711;47.158;7.346;2022-12-18T02:25:24;0.00;99.90
45983;DHT22;31711;47.158;7.346;2022-12-18T02:27:57;-0.10;99.90
45983;DHT22;31711;47.158;7.346;2022-12-18T02:30:26;-0.10;99.90
45983;DHT22;31711;47.158;7.346;2022-12-18T02:32:55;-0.20;99.90
45983;DHT22;31711;47.158;7.346;2022-12-18T02:35:24;-0.20;99.90
45983;DHT22;31711;47.158;7.346;2022-12-18T02:37:51;-0.10;99.90
45983;DHT22;31711;47.158;7.346;2022-12-18T02:40:22;0.00;99.90
45983;DHT22;31711;47.158;7.346;2022-12-18T02:42:49;0.00;99.90
45983;DHT22;31711;47.158;7.346;2022-12-18T02:45:15;0.10;99.90
45983;DHT22;31711;47.158;7.346;2022-12-18T02:47:45;0.10;99.90
45983;DHT22;31711;47.158;7.346;2022-12-18T02:50:38;0.10;99.90
45983;DHT22;31711;47.158;7.346;2022-12-18T03:01:41;0.10;99.90
45983;DHT22;31711;47.158;7.346;2022-12-18T03:04:30;0.00;99.90
45983;DHT22;31711;47.158;7.346;2022-12-18T03:06:59;0.00;99.90
45983;DHT22;31711;47.158;7.346;2022-12-18T03:09:33;0.10;99.90
45983;DHT22;31711;47.158;7.346;2022-12-18T03:12:09;0.20;99.90
45983;DHT22;31711;47.158;7.346;2022-12-18T03:17:32;0.10;99.90
45983;DHT22;31711;47.158;7.346;2022-12-18T03:20:12;0.10;99.90
45983;DHT22;31711;47.158;7.346;2022-12-18T03:22:38;0.00;99.90
45983;DHT22;31711;47.158;7.346;2022-12-18T03:25:08;0.10;99.90
45983;DHT22;31711;47.158;7.346;2022-12-18T03:27:40;0.00;99.90
45983;DHT22;31711;47.158;7.346;2022-12-18T03:30:12;0.00;99.90
45983;DHT22;31711;47.158;7.346;2022-12-18T03:32:41;0.00;99.90
45983;DHT22;31711;47.158;7.346;2022-12-18T03:35:10;0.00;99.90
45983;DHT22;31711;47.158;7.346;2022-12-18T03:37:38;0.00;99.90
45983;DHT22;31711;47.158;7.346;2022-12-18T03:40:05;0.00;99.90
45983;DHT22;31711;47.158;7.346;2022-12-18T03:42:53;0.00;99.90
45983;DHT22;31711;47.158;7.346;2022-12-18T03:45:32;0.00;99.90
45983;DHT22;31711;47.158;7.346;2022-12-18T03:48:06;0.00;99.90
45983;DHT22;31711;47.158;7.346;2022-12-18T03:53:58;0.00;99.90
45983;DHT22;31711;47.158;7.346;2022-12-18T03:56:27;0.00;99.90
45983;DHT22;31711;47.158;7.346;2022-12-18T03:58:54;-0.10;99.90
45983;DHT22;31711;47.158;7.346;2022-12-18T04:01:25;-0.10;99.90
45983;DHT22;31711;47.158;7.346;2022-12-18T04:03:55;0.00;99.90
45983;DHT22;31711;47.158;7.346;2022-12-18T04:06:22;0.10;99.90
45983;DHT22;31711;47.158;7.346;2022-12-18T04:08:49;0.10;99.90
45983;DHT22;31711;47.158;7.346;2022-12-18T04:11:15;0.10;99.90
45983;DHT22;31711;47.158;7.346;2022-12-18T04:13:42;0.10;99.90
45983;DHT22;31711;47.158;7.346;2022-12-18T04:16:09;0.10;99.90
45983;DHT22;31711;47.158;7.346;2022-12-18T04:18:38;0.10;99.90
45983;DHT22;31711;47.158;7.346;2022-12-18T04:21:04;0.20;99.90
45983;DHT22;31711;47.158;7.346;2022-12-18T04:23:30;0.10;99.90
45983;DHT22;31711;47.158;7.346;2022-12-18T04:25:56;0.00;99.90
45983;DHT22;31711;47.158;7.346;2022-12-18T04:28:22;0.00;99.90
45983;DHT22;31711;47.158;7.346;2022-12-18T04:30:48;0.00;99.90
45983;DHT22;31711;47.158;7.346;2022-12-18T04:33:15;0.10;99.90
45983;DHT22;31711;47.158;7.346;2022-12-18T04:35:41;0.00;99.90
45983;DHT22;31711;47.158;7.346;2022-12-18T04:38:08;0.00;99.90
45983;DHT22;31711;47.158;7.346;2022-12-18T04:40:34;0.00;99.90
45983;DHT22;31711;47.158;7.346;2022-12-18T04:43:00;0.00;99.90
45983;DHT22;31711;47.158;7.346;2022-12-18T04:45:26;0.00;99.90
45983;DHT22;31711;47.158;7.346;2022-12-18T04:47:52;-0.30;99.90
45983;DHT22;31711;47.158;7.346;2022-12-18T04:50:18;-0.20;99.90
45983;DHT22;31711;47.158;7.346;2022-12-18T04:52:44;-0.10;99.90
45983;DHT22;31711;47.158;7.346;2022-12-18T04:55:10;-0.20;99.90
45983;DHT22;31711;47.158;7.346;2022-12-18T04:57:36;-0.10;99.90
45983;DHT22;31711;47.158;7.346;2022-12-18T05:00:02;-0.20;99.90
45983;DHT22;31711;47.158;7.346;2022-12-18T05:02:28;-0.20;99.90
45983;DHT22;31711;47.158;7.346;2022-12-18T05:04:54;-0.10;99.90
45983;DHT22;31711;47.158;7.346;2022-12-18T05:07:20;0.00;99.90
45983;DHT22;31711;47.158;7.346;2022-12-18T05:09:46;0.00;99.90
45983;DHT22;31711;47.158;7.346;2022-12-18T05:12:12;0.00;99.90
45983;DHT22;31711;47.158;7.346;2022-12-18T05:14:38;-0.10;99.90
45983;DHT22;31711;47.158;7.346;2022-12-18T05:17:04;0.00;99.90
45983;DHT22;31711;47.158;7.346;2022-12-18T05:19:30;0.00;99.90
45983;DHT22;31711;47.158;7.346;2022-12-18T05:21:56;0.10;99.90
45983;DHT22;31711;47.158;7.346;2022-12-18T05:24:22;0.10;99.90
45983;DHT22;31711;47.158;7.346;2022-12-18T05:26:48;0.10;99.90
45983;DHT22;31711;47.158;7.346;2022-12-18T05:29:14;0.10;99.90
45983;DHT22;31711;47.158;7.346;2022-12-18T05:31:40;0.10;99.90
45983;DHT22;31711;47.158;7.346;2022-12-18T05:34:06;0.10;99.90
45983;DHT22;31711;47.158;7.346;2022-12-18T05:36:32;0.20;99.90
45983;DHT22;31711;47.158;7.346;2022-12-18T05:38:58;0.10;99.90
45983;DHT22;31711;47.158;7.346;2022-12-18T05:41:26;0.20;99.90
45983;DHT22;31711;47.158;7.346;2022-12-18T05:43:52;0.10;99.90
45983;DHT22;31711;47.158;7.346;2022-12-18T05:46:18;0.00;99.90
45983;DHT22;31711;47.158;7.346;2022-12-18T05:48:44;0.00;99.90
45983;DHT22;31711;47.158;7.346;2022-12-18T05:51:13;0.00;99.90
45983;DHT22;31711;47.158;7.346;2022-12-18T05:53:41;-0.10;99.90
45983;DHT22;31711;47.158;7.346;2022-12-18T05:56:11;0.00;99.90
45983;DHT22;31711;47.158;7.346;2022-12-18T05:58:37;0.00;99.90
45983;DHT22;31711;47.158;7.346;2022-12-18T06:03:38;0.10;99.90
45983;DHT22;31711;47.158;7.346;2022-12-18T06:06:11;0.20;99.90
45983;DHT22;31711;47.158;7.346;2022-12-18T06:08:37;0.10;99.90
45983;DHT22;31711;47.158;7.346;2022-12-18T06:11:03;0.10;99.90
45983;DHT22;31711;47.158;7.346;2022-12-18T06:13:29;0.30;99.90
45983;DHT22;31711;47.158;7.346;2022-12-18T06:15:55;0.30;99.90
45983;DHT22;31711;47.158;7.346;2022-12-18T06:18:21;0.20;99.90
45983;DHT22;31711;47.158;7.346;2022-12-18T06:20:57;0.10;99.90
45983;DHT22;31711;47.158;7.346;2022-12-18T06:23:24;0.20;99.90
45983;DHT22;31711;47.158;7.346;2022-12-18T06:25:51;0.20;99.90
45983;DHT22;31711;47.158;7.346;2022-12-18T06:28:17;0.30;99.90
45983;DHT22;31711;47.158;7.346;2022-12-18T06:30:44;0.30;99.90
45983;DHT22;31711;47.158;7.346;2022-12-18T06:33:10;0.20;99.90
45983;DHT22;31711;47.158;7.346;2022-12-18T06:35:36;0.10;99.90
45983;DHT22;31711;47.158;7.346;2022-12-18T06:38:02;0.00;99.90
45983;DHT22;31711;47.158;7.346;2022-12-18T06:40:29;0.10;99.90
45983;DHT22;31711;47.158;7.346;2022-12-18T06:42:55;0.20;99.90
45983;DHT22;31711;47.158;7.346;2022-12-18T06:45:21;0.00;99.90
45983;DHT22;31711;47.158;7.346;2022-12-18T06:47:47;-0.10;99.90
45983;DHT22;31711;47.158;7.346;2022-12-18T06:50:13;-0.10;99.90
45983;DHT22;31711;47.158;7.346;2022-12-18T06:52:39;-0.10;99.90
45983;DHT22;31711;47.158;7.346;2022-12-18T06:55:10;-0.10;99.90
45983;DHT22;31711;47.158;7.346;2022-12-18T06:57:37;0.00;99.90
45983;DHT22;31711;47.158;7.346;2022-12-18T07:00:05;0.10;99.90
45983;DHT22;31711;47.158;7.346;2022-12-18T07:02:31;0.20;99.90
45983;DHT22;31711;47.158;7.346;2022-12-18T07:04:58;0.20;99.90
45983;DHT22;31711;47.158;7.346;2022-12-18T07:07:24;0.20;99.90
45983;DHT22;31711;47.158;7.346;2022-12-18T07:09:50;0.30;99.90
45983;DHT22;31711;47.158;7.346;2022-12-18T07:12:17;0.30;99.90
45983;DHT22;31711;47.158;7.346;2022-12-18T07:14:43;0.20;99.90
45983;DHT22;31711;47.158;7.346;2022-12-18T07:17:09;0.20;99.90
45983;DHT22;31711;47.158;7.346;2022-12-18T07:19:35;0.20;99.90
45983;DHT22;31711;47.158;7.346;2022-12-18T07:22:01;0.20;99.90
45983;DHT22;31711;47.158;7.346;2022-12-18T07:24:27;0.30;99.90
45983;DHT22;31711;47.158;7.346;2022-12-18T07:26:54;0.20;99.90
45983;DHT22;31711;47.158;7.346;2022-12-18T07:29:20;0.20;99.90
45983;DHT22;31711;47.158;7.346;2022-12-18T07:31:46;0.30;99.90
45983;DHT22;31711;47.158;7.346;2022-12-18T07:34:13;0.40;99.90
45983;DHT22;31711;47.158;7.346;2022-12-18T07:36:39;0.40;99.90
45983;DHT22;31711;47.158;7.346;2022-12-18T07:39:05;0.30;99.90
45983;DHT22;31711;47.158;7.346;2022-12-18T07:41:31;0.40;99.90
45983;DHT22;31711;47.158;7.346;2022-12-18T07:43:57;0.50;99.90
45983;DHT22;31711;47.158;7.346;2022-12-18T07:46:23;0.60;99.90
45983;DHT22;31711;47.158;7.346;2022-12-18T07:48:49;0.50;99.90
45983;DHT22;31711;47.158;7.346;2022-12-18T07:51:15;0.60;99.90
45983;DHT22;31711;47.158;7.346;2022-12-18T07:53:41;0.60;99.90
45983;DHT22;31711;47.158;7.346;2022-12-18T07:56:09;0.60;99.90
45983;DHT22;31711;47.158;7.346;2022-12-18T07:58:36;0.70;99.90
45983;DHT22;31711;47.158;7.346;2022-12-18T08:01:07;0.70;99.90
45983;DHT22;31711;47.158;7.346;2022-12-18T08:03:33;0.80;99.90
45983;DHT22;31711;47.158;7.346;2022-12-18T08:06:08;0.90;99.90
45983;DHT22;31711;47.158;7.346;2022-12-18T08:08:34;0.90;99.90
45983;DHT22;31711;47.158;7.346;2022-12-18T08:11:01;1.00;99.90
45983;DHT22;31711;47.158;7.346;2022-12-18T08:13:27;0.90;99.90
45983;DHT22;31711;47.158;7.346;2022-12-18T08:16:05;1.10;99.90
45983;DHT22;31711;47.158;7.346;2022-12-18T08:18:35;1.00;99.90
45983;DHT22;31711;47.158;7.346;2022-12-18T08:21:18;1.00;99.90
45983;DHT22;31711;47.158;7.346;2022-12-18T08:23:44;1.00;99.90
45983;DHT22;31711;47.158;7.346;2022-12-18T08:26:13;1.00;99.90
45983;DHT22;31711;47.158;7.346;2022-12-18T08:28:40;0.90;99.90
45983;DHT22;31711;47.158;7.346;2022-12-18T08:31:06;1.10;99.90
45983;DHT22;31711;47.158;7.346;2022-12-18T08:33:34;1.10;99.90
45983;DHT22;31711;47.158;7.346;2022-12-18T08:36:01;1.20;99.90
45983;DHT22;31711;47.158;7.346;2022-12-18T08:38:27;1.30;99.90
45983;DHT22;31711;47.158;7.346;2022-12-18T08:41:00;1.40;99.90
45983;DHT22;31711;47.158;7.346;2022-12-18T08:43:26;1.30;99.90
45983;DHT22;31711;47.158;7.346;2022-12-18T08:46:11;1.30;99.90
45983;DHT22;31711;47.158;7.346;2022-12-18T08:48:37;1.30;99.90
45983;DHT22;31711;47.158;7.346;2022-12-18T08:51:03;1.40;99.90
45983;DHT22;31711;47.158;7.346;2022-12-18T08:53:29;1.50;99.90
45983;DHT22;31711;47.158;7.346;2022-12-18T08:55:56;1.50;99.90
45983;DHT22;31711;47.158;7.346;2022-12-18T08:58:22;1.60;99.90
45983;DHT22;31711;47.158;7.346;2022-12-18T09:00:48;1.60;99.90
45983;DHT22;31711;47.158;7.346;2022-12-18T09:03:16;1.50;99.90
45983;DHT22;31711;47.158;7.346;2022-12-18T09:05:43;1.60;99.90
45983;DHT22;31711;47.158;7.346;2022-12-18T09:08:11;1.70;99.90
45983;DHT22;31711;47.158;7.346;2022-12-18T09:10:47;1.70;99.90
45983;DHT22;31711;47.158;7.346;2022-12-18T09:13:14;1.90;99.90
45983;DHT22;31711;47.158;7.346;2022-12-18T09:15:46;2.00;99.90
45983;DHT22;31711;47.158;7.346;2022-12-18T09:18:13;2.00;99.90
45983;DHT22;31711;47.158;7.346;2022-12-18T09:20:40;2.00;99.90
45983;DHT22;31711;47.158;7.346;2022-12-18T09:23:07;2.20;99.90
45983;DHT22;31711;47.158;7.346;2022-12-18T09:25:34;2.20;99.90
45983;DHT22;31711;47.158;7.346;2022-12-18T09:28:19;2.10;99.90
45983;DHT22;31711;47.158;7.346;2022-12-18T09:30:48;2.20;99.90
45983;DHT22;31711;47.158;7.346;2022-12-18T09:33:15;2.10;99.90
45983;DHT22;31711;47.158;7.346;2022-12-18T09:35:42;2.20;99.90
45983;DHT22;31711;47.158;7.346;2022-12-18T09:38:12;2.30;99.90
45983;DHT22;31711;47.158;7.346;2022-12-18T09:40:59;2.20;99.90
45983;DHT22;31711;47.158;7.346;2022-12-18T09:43:55;1.80;99.90
45983;DHT22;31711;47.158;7.346;2022-12-18T09:46:40;1.80;99.90
45983;DHT22;31711;47.158;7.346;2022-12-18T09:49:14;1.80;99.90
45983;DHT22;31711;47.158;7.346;2022-12-18T09:51:47;1.60;99.90
45983;DHT22;31711;47.158;7.346;2022-12-18T09:54:41;1.50;99.90
45983;DHT22;31711;47.158;7.346;2022-12-18T09:57:18;1.70;99.90
45983;DHT22;31711;47.158;7.346;2022-12-18T10:00:04;1.60;99.90
45983;DHT22;31711;47.158;7.346;2022-12-18T10:02:31;1.50;99.90
45983;DHT22;31711;47.158;7.346;2022-12-18T10:05:11;1.60;99.90
45983;DHT22;31711;47.158;7.346;2022-12-18T10:15:57;1.70;99.90
45983;DHT22;31711;47.158;7.346;2022-12-18T10:21:20;1.60;99.90
45983;DHT22;31711;47.158;7.346;2022-12-18T10:24:02;1.60;99.90
45983;DHT22;31711;47.158;7.346;2022-12-18T10:26:34;1.70;99.90
45983;DHT22;31711;47.158;7.346;2022-12-18T10:29:01;1.80;99.90
45983;DHT22;31711;47.158;7.346;2022-12-18T10:31:28;1.80;99.90
45983;DHT22;31711;47.158;7.346;2022-12-18T10:33:54;2.20;99.90
45983;DHT22;31711;47.158;7.346;2022-12-18T10:36:20;2.00;99.90
45983;DHT22;31711;47.158;7.346;2022-12-18T10:38:46;1.90;99.90
45983;DHT22;31711;47.158;7.346;2022-12-18T10:43:46;2.50;99.90
45983;DHT22;31711;47.158;7.346;2022-12-18T10:46:16;2.60;99.90
45983;DHT22;31711;47.158;7.346;2022-12-18T10:51:33;2.20;99.90
45983;DHT22;31711;47.158;7.346;2022-12-18T10:56:29;2.10;99.90
45983;DHT22;31711;47.158;7.346;2022-12-18T10:58:58;2.10;99.90
45983;DHT22;31711;47.158;7.346;2022-12-18T11:01:24;2.30;99.90
45983;DHT22;31711;47.158;7.346;2022-12-18T11:06:21;2.60;99.90
45983;DHT22;31711;47.158;7.346;2022-12-18T11:09:00;2.80;99.90
45983;DHT22;31711;47.158;7.346;2022-12-18T11:11:27;3.00;99.90
45983;DHT22;31711;47.158;7.346;2022-12-18T11:14:03;3.00;99.90
45983;DHT22;31711;47.158;7.346;2022-12-18T11:16:34;3.10;99.90
45983;DHT22;31711;47.158;7.346;2022-12-18T11:19:28;3.20;99.90
45983;DHT22;31711;47.158;7.346;2022-12-18T11:21:55;3.00;99.90
45983;DHT22;31711;47.158;7.346;2022-12-18T11:24:27;3.00;99.90
45983;DHT22;31711;47.158;7.346;2022-12-18T11:26:55;3.00;99.90
45983;DHT22;31711;47.158;7.346;2022-12-18T11:29:27;3.10;99.90
45983;DHT22;31711;47.158;7.346;2022-12-18T11:34:45;2.90;99.90
45983;DHT22;31711;47.158;7.346;2022-12-18T11:37:13;2.90;99.90
45983;DHT22;31711;47.158;7.346;2022-12-18T11:39:45;2.80;99.90
45983;DHT22;31711;47.158;7.346;2022-12-18T11:53:01;2.40;99.90
45983;DHT22;31711;47.158;7.346;2022-12-18T12:03:59;2.90;99.90
45983;DHT22;31711;47.158;7.346;2022-12-18T12:06:31;2.80;99.90
45983;DHT22;31711;47.158;7.346;2022-12-18T12:09:15;2.90;99.90
45983;DHT22;31711;47.158;7.346;2022-12-18T12:17:31;2.50;99.90
45983;DHT22;31711;47.158;7.346;2022-12-18T12:20:16;2.50;99.90
45983;DHT22;31711;47.158;7.346;2022-12-18T12:23:06;2.50;99.90
45983;DHT22;31711;47.158;7.346;2022-12-18T12:25:47;2.60;99.90
45983;DHT22;31711;47.158;7.346;2022-12-18T12:31:24;3.10;99.90
45983;DHT22;31711;47.158;7.346;2022-12-18T12:34:21;3.40;99.90
45983;DHT22;31711;47.158;7.346;2022-12-18T12:39:29;3.50;99.90
45983;DHT22;31711;47.158;7.346;2022-12-18T12:41:56;3.10;99.90
45983;DHT22;31711;47.158;7.346;2022-12-18T12:44:44;3.10;99.90
45983;DHT22;31711;47.158;7.346;2022-12-18T12:47:40;3.10;99.90
45983;DHT22;31711;47.158;7.346;2022-12-18T12:50:14;3.30;99.90
45983;DHT22;31711;47.158;7.346;2022-12-18T12:52:45;3.10;99.90
45983;DHT22;31711;47.158;7.346;2022-12-18T12:55:19;3.10;99.90
45983;DHT22;31711;47.158;7.346;2022-12-18T12:57:59;3.00;99.90
45983;DHT22;31711;47.158;7.346;2022-12-18T13:00:35;3.30;99.90
45983;DHT22;31711;47.158;7.346;2022-12-18T13:03:15;3.30;99.90
45983;DHT22;31711;47.158;7.346;2022-12-18T13:06:04;3.20;99.90
45983;DHT22;31711;47.158;7.346;2022-12-18T13:08:59;3.20;99.90
45983;DHT22;31711;47.158;7.346;2022-12-18T13:11:39;3.40;99.90
45983;DHT22;31711;47.158;7.346;2022-12-18T13:14:38;3.30;99.90
45983;DHT22;31711;47.158;7.346;2022-12-18T13:17:28;3.40;99.90
45983;DHT22;31711;47.158;7.346;2022-12-18T13:22:36;3.30;99.90
45983;DHT22;31711;47.158;7.346;2022-12-18T13:25:03;3.10;99.90
45983;DHT22;31711;47.158;7.346;2022-12-18T13:28:12;3.00;99.90
45983;DHT22;31711;47.158;7.346;2022-12-18T13:30:55;3.00;99.90
45983;DHT22;31711;47.158;7.346;2022-12-18T13:36:15;2.70;99.90
45983;DHT22;31711;47.158;7.346;2022-12-18T13:38:43;2.70;99.90
45983;DHT22;31711;47.158;7.346;2022-12-18T13:43:53;2.80;99.90
45983;DHT22;31711;47.158;7.346;2022-12-18T13:51:27;2.90;99.90
45983;DHT22;31711;47.158;7.346;2022-12-18T13:54:30;2.90;99.90
45983;DHT22;31711;47.158;7.346;2022-12-18T13:56:48;2.90;99.90
45983;DHT22;31711;47.158;7.346;2022-12-18T13:59:15;2.90;99.90
45983;DHT22;31711;47.158;7.346;2022-12-18T14:01:53;2.80;99.90
45983;DHT22;31711;47.158;7.346;2022-12-18T14:06:50;2.70;99.90
45983;DHT22;31711;47.158;7.346;2022-12-18T14:09:24;2.80;99.90
45983;DHT22;31711;47.158;7.346;2022-12-18T14:11:51;2.90;99.90
45983;DHT22;31711;47.158;7.346;2022-12-18T14:14:18;2.80;99.90
45983;DHT22;31711;47.158;7.346;2022-12-18T14:16:46;2.60;99.90
45983;DHT22;31711;47.158;7.346;2022-12-18T14:19:17;2.70;99.90
45983;DHT22;31711;47.158;7.346;2022-12-18T14:21:50;2.40;99.90
45983;DHT22;31711;47.158;7.346;2022-12-18T14:24:19;2.30;99.90
45983;DHT22;31711;47.158;7.346;2022-12-18T14:26:46;2.10;99.90
45983;DHT22;31711;47.158;7.346;2022-12-18T14:29:26;2.10;99.90
45983;DHT22;31711;47.158;7.346;2022-12-18T14:34:39;1.90;99.90
45983;DHT22;31711;47.158;7.346;2022-12-18T14:37:08;1.90;99.90
45983;DHT22;31711;47.158;7.346;2022-12-18T14:39:35;1.80;99.90
45983;DHT22;31711;47.158;7.346;2022-12-18T14:42:01;1.70;99.90
45983;DHT22;31711;47.158;7.346;2022-12-18T14:44:27;1.80;99.90
45983;DHT22;31711;47.158;7.346;2022-12-18T14:46:53;1.70;99.90
45983;DHT22;31711;47.158;7.346;2022-12-18T14:51:56;1.60;99.90
45983;DHT22;31711;47.158;7.346;2022-12-18T14:54:27;1.70;99.90
45983;DHT22;31711;47.158;7.346;2022-12-18T14:57:18;1.60;99.90
45983;DHT22;31711;47.158;7.346;2022-12-18T14:59:46;1.40;99.90
45983;DHT22;31711;47.158;7.346;2022-12-18T15:02:25;1.30;99.90
45983;DHT22;31711;47.158;7.346;2022-12-18T15:07:54;1.20;99.90
45983;DHT22;31711;47.158;7.346;2022-12-18T15:10:29;1.20;99.90
45983;DHT22;31711;47.158;7.346;2022-12-18T15:18:00;1.20;99.90
45983;DHT22;31711;47.158;7.346;2022-12-18T15:20:27;1.10;99.90
45983;DHT22;31711;47.158;7.346;2022-12-18T15:22:53;1.10;99.90
45983;DHT22;31711;47.158;7.346;2022-12-18T15:25:37;1.10;99.90
45983;DHT22;31711;47.158;7.346;2022-12-18T15:28:26;1.00;99.90
45983;DHT22;31711;47.158;7.346;2022-12-18T15:33:43;0.90;99.90
45983;DHT22;31711;47.158;7.346;2022-12-18T15:36:13;0.90;99.90
45983;DHT22;31711;47.158;7.346;2022-12-18T15:38:40;0.80;99.90
45983;DHT22;31711;47.158;7.346;2022-12-18T15:41:19;0.80;99.90
45983;DHT22;31711;47.158;7.346;2022-12-18T15:43:47;0.80;99.90
45983;DHT22;31711;47.158;7.346;2022-12-18T15:48:44;0.70;99.90
45983;DHT22;31711;47.158;7.346;2022-12-18T15:51:31;0.60;99.90
45983;DHT22;31711;47.158;7.346;2022-12-18T15:54:00;0.60;99.90
45983;DHT22;31711;47.158;7.346;2022-12-18T15:56:26;0.60;99.90
45983;DHT22;31711;47.158;7.346;2022-12-18T15:59:14;0.60;99.90
45983;DHT22;31711;47.158;7.346;2022-12-18T16:01:41;0.60;99.90
45983;DHT22;31711;47.158;7.346;2022-12-18T16:04:15;0.50;99.90
45983;DHT22;31711;47.158;7.346;2022-12-18T16:06:42;0.50;99.90
45983;DHT22;31711;47.158;7.346;2022-12-18T16:09:08;0.50;99.90
45983;DHT22;31711;47.158;7.346;2022-12-18T16:11:36;0.50;99.90
45983;DHT22;31711;47.158;7.346;2022-12-18T16:14:11;0.50;99.90
45983;DHT22;31711;47.158;7.346;2022-12-18T16:16:38;0.60;99.90
45983;DHT22;31711;47.158;7.346;2022-12-18T16:19:04;0.60;99.90
45983;DHT22;31711;47.158;7.346;2022-12-18T16:21:30;0.60;99.90
45983;DHT22;31711;47.158;7.346;2022-12-18T16:23:56;0.60;99.90
45983;DHT22;31711;47.158;7.346;2022-12-18T16:26:22;0.70;99.90
45983;DHT22;31711;47.158;7.346;2022-12-18T16:28:48;0.70;99.90
45983;DHT22;31711;47.158;7.346;2022-12-18T16:31:14;0.70;99.90
45983;DHT22;31711;47.158;7.346;2022-12-18T16:33:40;0.80;99.90
45983;DHT22;31711;47.158;7.346;2022-12-18T16:36:06;0.90;99.90
45983;DHT22;31711;47.158;7.346;2022-12-18T16:38:33;0.90;99.90
45983;DHT22;31711;47.158;7.346;2022-12-18T16:40:59;0.90;99.90
45983;DHT22;31711;47.158;7.346;2022-12-18T16:43:43;0.90;99.90
45983;DHT22;31711;47.158;7.346;2022-12-18T16:46:09;1.00;99.90
45983;DHT22;31711;47.158;7.346;2022-12-18T16:48:35;1.00;99.90
45983;DHT22;31711;47.158;7.346;2022-12-18T16:51:03;1.00;99.90
45983;DHT22;31711;47.158;7.346;2022-12-18T16:53:31;0.90;99.90
45983;DHT22;31711;47.158;7.346;2022-12-18T16:55:57;1.00;99.90
45983;DHT22;31711;47.158;7.346;2022-12-18T16:58:23;0.90;99.90
45983;DHT22;31711;47.158;7.346;2022-12-18T17:00:49;1.00;99.90
45983;DHT22;31711;47.158;7.346;2022-12-18T17:03:15;0.90;99.90
45983;DHT22;31711;47.158;7.346;2022-12-18T17:05:41;0.90;99.90
45983;DHT22;31711;47.158;7.346;2022-12-18T17:08:07;0.90;99.90
45983;DHT22;31711;47.158;7.346;2022-12-18T17:10:36;0.90;99.90
45983;DHT22;31711;47.158;7.346;2022-12-18T17:13:02;0.90;99.90
45983;DHT22;31711;47.158;7.346;2022-12-18T17:15:28;0.90;99.90
45983;DHT22;31711;47.158;7.346;2022-12-18T17:17:54;0.90;99.90
45983;DHT22;31711;47.158;7.346;2022-12-18T17:20:20;0.90;99.90
45983;DHT22;31711;47.158;7.346;2022-12-18T17:22:46;0.90;99.90
45983;DHT22;31711;47.158;7.346;2022-12-18T17:25:11;0.80;99.90
45983;DHT22;31711;47.158;7.346;2022-12-18T17:27:38;0.90;99.90
45983;DHT22;31711;47.158;7.346;2022-12-18T17:30:04;1.00;99.90
45983;DHT22;31711;47.158;7.346;2022-12-18T17:32:30;1.10;99.90
45983;DHT22;31711;47.158;7.346;2022-12-18T17:34:56;1.10;99.90
45983;DHT22;31711;47.158;7.346;2022-12-18T17:37:22;1.10;99.90
45983;DHT22;31711;47.158;7.346;2022-12-18T17:39:50;1.20;99.90
45983;DHT22;31711;47.158;7.346;2022-12-18T17:42:16;1.20;99.90
45983;DHT22;31711;47.158;7.346;2022-12-18T17:44:42;1.20;99.90
45983;DHT22;31711;47.158;7.346;2022-12-18T17:47:08;1.20;99.90
45983;DHT22;31711;47.158;7.346;2022-12-18T17:49:37;1.20;99.90
45983;DHT22;31711;47.158;7.346;2022-12-18T17:52:03;1.20;99.90
45983;DHT22;31711;47.158;7.346;2022-12-18T17:54:29;1.20;99.90
45983;DHT22;31711;47.158;7.346;2022-12-18T17:56:55;1.20;99.90
45983;DHT22;31711;47.158;7.346;2022-12-18T17:59:21;1.00;99.90
45983;DHT22;31711;47.158;7.346;2022-12-18T18:01:47;1.00;99.90